This is the latest recevied weather packets stored in our database for station/object KC3DGM. If no packets are shown the sender has not sent any weather packets the latest 1 day(s).
| Time | Temp. | Humidity | Pressure | Rain* | Wind** | Luminosity | Snow |
|---|---|---|---|---|---|---|---|
| 1778011337 | 17.78° C | 75% | 979 hPa | 0 mm | 0.45 m/s, 278° | 19 W/m² | - |
| 1778011032 | 17.78° C | 75% | 979.2 hPa | 0 mm | 0 m/s | 32 W/m² | - |
| 1778010730 | 17.78° C | 74% | 979.1 hPa | 0 mm | 0 m/s | 22 W/m² | - |
| 1778010427 | 17.78° C | 73% | 979.1 hPa | 0 mm | 0.89 m/s, 295° | 17 W/m² | - |
| 1778010123 | 18.33° C | 72% | 979.1 hPa | 0 mm | 0.45 m/s, 268° | 16 W/m² | - |
| 1778009819 | 18.89° C | 70% | 979.2 hPa | 0 mm | 0.89 m/s, 277° | 14 W/m² | - |
| 1778009517 | 19.44° C | 68% | 978.9 hPa | 0 mm | 1.34 m/s, 297° | 26 W/m² | - |
| 1778009215 | 20.56° C | 65% | 978.9 hPa | 0 mm | 1.34 m/s, 297° | 23 W/m² | - |
| 1778008912 | 20.56° C | 65% | 978.8 hPa | 0 mm | 0.45 m/s, 274° | 75 W/m² | - |
| 1778008610 | 20.56° C | 63% | 978.8 hPa | 0 mm | 3.13 m/s, 113° | 107 W/m² | - |
| 1778008308 | 20.56° C | 63% | 978.9 hPa | 0 mm | 0.45 m/s, 311° | 150 W/m² | - |
| 1778008004 | 21.11° C | 61% | 978.8 hPa | 0 mm | 0.89 m/s, 264° | 176 W/m² | - |
| 1778007704 | 21.11° C | 62% | 978.8 hPa | 0 mm | 3.13 m/s, 193° | 235 W/m² | - |
| 1778007401 | 21.11° C | 62% | 978.7 hPa | 0 mm | 0.89 m/s, 256° | 210 W/m² | - |
| 1778007097 | 21.11° C | 61% | 978.7 hPa | 0 mm | 1.34 m/s, 218° | 170 W/m² | - |
| 1778006794 | 20.56° C | 63% | 978.8 hPa | 0 mm | 2.24 m/s, 124° | 172 W/m² | - |
| 1778006491 | 21.11° C | 61% | 978.8 hPa | 0 mm | 0.45 m/s, 274° | 163 W/m² | - |
| 1778006188 | 21.11° C | 63% | 979.2 hPa | 0 mm | 1.34 m/s, 265° | 193 W/m² | - |
| 1778005886 | 21.11° C | 63% | 978.8 hPa | 0 mm | 0.89 m/s, 209° | 174 W/m² | - |
| 1778005581 | 21.11° C | 63% | 978.8 hPa | 0 mm | 0.89 m/s, 263° | 193 W/m² | - |
| 1778005278 | 21.11° C | 65% | 978.8 hPa | 0 mm | 0.89 m/s, 268° | 196 W/m² | - |
| 1778004975 | 21.11° C | 63% | 978.6 hPa | 0 mm | 0.45 m/s, 278° | 205 W/m² | - |
| 1778004672 | 20.56° C | 62% | 978.8 hPa | 0 mm | 0.45 m/s, 273° | 285 W/m² | - |
| 1778004368 | 20.56° C | 65% | 978.7 hPa | 0 mm | 0.89 m/s, 259° | 149 W/m² | - |
| 1778004066 | 20.56° C | 64% | 978.7 hPa | 0 mm | 0.89 m/s, 266° | 113 W/m² | - |
* Rain latest hour (hover to see other rain measurements)
** Current wind speed in m/s (hover to see current wind gust speed)